createdAt,value
2023-07-30T00:00:43.354Z,99995.16
2023-07-30T00:03:13.722Z,99989.31
2023-07-30T00:09:21.000Z,99991.88
2023-07-30T00:11:47.366Z,99989.75
2023-07-30T00:14:13.762Z,100000.00
2023-07-30T00:16:40.297Z,100002.53
2023-07-30T00:19:06.725Z,99988.09
2023-07-30T00:21:33.124Z,99992.66
2023-07-30T00:24:00.357Z,99995.22
2023-07-30T00:26:27.433Z,100000.22
2023-07-30T00:28:53.897Z,99997.28
2023-07-30T00:31:20.379Z,100001.06
2023-07-30T00:33:46.904Z,99998.34
2023-07-30T00:36:13.328Z,100004.63
2023-07-30T00:38:39.731Z,100001.91
2023-07-30T00:41:06.138Z,100004.19
2023-07-30T00:43:32.519Z,100009.84
2023-07-30T00:45:59.018Z,100020.97
2023-07-30T00:48:25.475Z,100016.78
2023-07-30T00:50:52.031Z,100014.25
2023-07-30T00:53:21.021Z,100020.97
2023-07-30T00:55:47.611Z,100016.34
2023-07-30T00:58:14.344Z,100022.44
2023-07-30T01:00:42.109Z,100025.56
2023-07-30T01:03:08.625Z,100022.22
2023-07-30T01:05:35.104Z,100031.25
2023-07-30T01:08:01.465Z,100029.97
2023-07-30T01:10:31.669Z,100022.03
2023-07-30T01:13:00.425Z,100025.78
2023-07-30T01:15:26.922Z,100031.69
2023-07-30T01:17:53.415Z,100034.19
2023-07-30T01:20:19.816Z,100028.75
2023-07-30T01:22:46.258Z,100028.94
2023-07-30T01:25:12.809Z,100035.44
2023-07-30T01:27:43.335Z,100033.78
2023-07-30T01:30:30.111Z,100044.03
2023-07-30T01:32:57.580Z,100036.06
2023-07-30T01:35:27.868Z,100051.34
2023-07-30T01:37:55.083Z,100050.53
2023-07-30T01:40:22.354Z,100052.19
2023-07-30T01:42:50.344Z,100052.63
2023-07-30T01:45:16.873Z,100058.28
2023-07-30T01:47:43.629Z,100057.84
2023-07-30T01:50:10.532Z,100061.41
2023-07-30T01:52:37.044Z,100063.50
2023-07-30T01:55:03.666Z,100065.81
2023-07-30T01:57:30.109Z,100072.94
2023-07-30T01:59:56.492Z,100074.19
2023-07-30T02:02:23.022Z,100075.47
2023-07-30T02:04:49.784Z,100078.19
2023-07-30T02:07:16.280Z,100074.81
2023-07-30T02:09:42.779Z,100074.00
2023-07-30T02:12:09.255Z,100081.72
2023-07-30T02:14:35.682Z,100087.00
2023-07-30T02:17:02.036Z,100084.88
2023-07-30T02:19:28.441Z,100088.66
2023-07-30T02:21:54.822Z,100082.78
2023-07-30T02:24:21.289Z,100083.00
2023-07-30T02:26:48.748Z,100074.22
2023-07-30T02:29:15.230Z,100091.38
2023-07-30T02:31:42.076Z,100081.31
2023-07-30T02:34:08.986Z,100090.34
2023-07-30T02:36:35.497Z,100092.22
2023-07-30T02:39:01.929Z,100086.13
2023-07-30T02:41:28.319Z,100095.34
2023-07-30T02:43:54.697Z,100094.28
2023-07-30T02:46:21.116Z,100104.56
2023-07-30T02:48:47.558Z,100103.88
2023-07-30T02:51:14.031Z,100101.59
2023-07-30T02:53:40.522Z,100096.75
2023-07-30T02:56:07.018Z,100095.50
2023-07-30T02:58:33.423Z,100099.91
2023-07-30T03:01:09.618Z,100107.00
2023-07-30T03:03:36.339Z,100110.97
2023-07-30T03:06:02.979Z,100113.06
2023-07-30T03:08:29.464Z,100112.44
2023-07-30T03:10:59.040Z,100121.00
2023-07-30T03:13:25.503Z,100116.19
2023-07-30T03:15:51.903Z,100116.53
2023-07-30T03:18:18.496Z,100113.41
2023-07-30T03:20:44.908Z,100117.00
2023-07-30T03:23:11.415Z,100108.41
2023-07-30T03:25:37.793Z,100126.81
2023-07-30T03:28:04.477Z,100127.00
2023-07-30T03:30:30.912Z,100115.06
2023-07-30T03:32:57.318Z,100103.56
2023-07-30T03:35:23.736Z,100114.25
2023-07-30T03:37:50.178Z,100116.72
2023-07-30T03:40:16.662Z,100121.06
2023-07-30T03:42:43.088Z,100119.38
2023-07-30T03:45:09.953Z,100113.50
2023-07-30T03:47:36.508Z,100122.13
2023-07-30T03:50:02.979Z,100122.53
2023-07-30T03:52:29.373Z,100111.38
2023-07-30T03:54:55.825Z,100106.13
2023-07-30T03:57:22.214Z,100108.06
2023-07-30T03:59:48.677Z,100117.47
2023-07-30T04:02:16.854Z,100120.19
2023-07-30T04:04:49.434Z,100115.19
2023-07-30T04:07:15.844Z,100117.25
2023-07-30T04:09:42.438Z,100121.41
2023-07-30T04:12:09.105Z,100121.03
2023-07-30T04:14:35.543Z,100123.94
2023-07-30T04:17:01.990Z,100126.84
2023-07-30T04:19:28.412Z,100130.03
2023-07-30T04:21:54.857Z,100131.25
2023-07-30T04:24:21.276Z,100142.78
2023-07-30T04:26:47.685Z,100139.03
2023-07-30T04:29:15.222Z,100151.75
2023-07-30T04:31:41.715Z,100157.38
2023-07-30T04:34:08.349Z,100157.56
2023-07-30T04:36:34.816Z,100157.34
2023-07-30T04:39:01.330Z,100163.81
2023-07-30T04:41:27.797Z,100164.44
2023-07-30T04:43:54.373Z,100158.16
2023-07-30T04:46:20.867Z,100154.63
2023-07-30T04:48:47.296Z,100159.00
2023-07-30T04:51:13.703Z,100156.28
2023-07-30T04:53:40.156Z,100160.69
2023-07-30T04:56:06.616Z,100151.47
2023-07-30T04:58:36.142Z,100164.69
2023-07-30T05:01:02.514Z,100155.03
2023-07-30T05:03:29.077Z,100151.47
2023-07-30T05:05:55.693Z,100151.59
2023-07-30T05:08:22.215Z,100159.38
2023-07-30T05:10:48.682Z,100161.09
2023-07-30T05:13:15.116Z,100152.94
2023-07-30T05:15:41.558Z,100149.03
2023-07-30T05:18:08.104Z,100157.59
2023-07-30T05:20:34.648Z,100141.31
2023-07-30T05:23:01.119Z,100148.06
2023-07-30T05:25:27.604Z,100136.41
2023-07-30T05:27:54.106Z,100134.56
2023-07-30T05:30:20.736Z,100121.63
2023-07-30T05:32:47.272Z,100125.78
2023-07-30T05:35:13.928Z,100118.88
2023-07-30T05:37:40.284Z,100126.84
2023-07-30T05:40:07.993Z,100125.81
2023-07-30T05:42:34.517Z,100132.13
2023-07-30T05:45:01.023Z,100140.50
2023-07-30T05:47:27.478Z,100136.34
2023-07-30T05:49:54.132Z,100142.47
2023-07-30T05:52:20.638Z,100128.81
2023-07-30T05:54:47.062Z,100127.16
2023-07-30T05:57:13.545Z,100124.03
2023-07-30T05:59:40.169Z,100123.44
2023-07-30T06:02:06.843Z,100124.91
2023-07-30T06:04:33.312Z,100127.19
2023-07-30T06:07:05.990Z,100122.38
2023-07-30T06:09:32.402Z,100124.06
2023-07-30T06:11:59.199Z,100138.94
2023-07-30T06:14:26.138Z,100140.00
2023-07-30T06:16:54.078Z,100144.81
2023-07-30T06:19:20.741Z,100146.28
2023-07-30T06:21:47.472Z,100139.16
2023-07-30T06:24:13.936Z,100144.41
2023-07-30T06:26:40.349Z,100154.25
2023-07-30T06:29:06.929Z,100159.50
2023-07-30T06:31:33.421Z,100151.31
2023-07-30T06:33:59.929Z,100153.63
2023-07-30T06:36:26.445Z,100153.63
2023-07-30T06:38:52.918Z,100157.81
2023-07-30T06:41:19.516Z,100152.59
2023-07-30T06:43:46.019Z,100155.94
2023-07-30T06:46:12.558Z,100162.47
2023-07-30T06:48:39.147Z,100165.38
2023-07-30T06:51:07.694Z,100170.19
2023-07-30T06:53:34.561Z,100166.00
2023-07-30T06:56:01.022Z,100169.16
2023-07-30T06:58:27.530Z,100167.69
2023-07-30T07:00:54.095Z,100174.78
2023-07-30T07:03:20.654Z,100176.22
2023-07-30T07:05:59.552Z,100189.47
2023-07-30T07:08:26.034Z,100200.59
2023-07-30T07:10:52.431Z,100204.38
2023-07-30T07:13:18.862Z,100212.56
2023-07-30T07:15:46.001Z,100223.50
2023-07-30T07:18:12.392Z,100227.63
2023-07-30T07:20:39.051Z,100227.84
2023-07-30T07:23:05.505Z,100234.56
2023-07-30T07:25:32.002Z,100227.41
2023-07-30T07:27:58.561Z,100203.06
2023-07-30T07:30:25.103Z,100207.63
2023-07-30T07:32:52.029Z,100210.06
2023-07-30T07:35:21.306Z,100200.53
2023-07-30T07:37:47.718Z,100193.78
2023-07-30T07:40:14.260Z,100201.25
2023-07-30T07:42:40.755Z,100176.97
2023-07-30T07:45:08.651Z,100178.44
2023-07-30T07:47:35.056Z,100182.66
2023-07-30T07:50:01.459Z,100172.16
2023-07-30T07:52:28.000Z,100176.00
2023-07-30T07:54:54.494Z,100175.28
2023-07-30T07:57:20.883Z,100170.28
2023-07-30T07:59:48.041Z,100170.34
2023-07-30T08:02:14.563Z,100172.06
2023-07-30T08:04:41.213Z,100180.41
2023-07-30T08:07:07.734Z,100164.09
2023-07-30T08:09:34.159Z,100180.25
2023-07-30T08:12:01.413Z,100174.16
2023-07-30T08:14:27.835Z,100180.47
2023-07-30T08:16:54.273Z,100175.84
2023-07-30T08:19:20.675Z,100179.41
2023-07-30T08:21:47.073Z,100176.50
2023-07-30T08:24:13.464Z,100175.00
2023-07-30T08:26:39.977Z,100175.44
2023-07-30T08:29:07.212Z,100179.84
2023-07-30T08:31:33.740Z,100170.34
2023-07-30T08:34:00.200Z,100160.19
2023-07-30T08:36:26.553Z,100163.56
2023-07-30T08:38:53.017Z,100162.41
2023-07-30T08:41:19.365Z,100163.19
2023-07-30T08:43:49.785Z,100156.53
2023-07-30T08:46:17.506Z,100162.16
2023-07-30T08:48:46.485Z,100152.13
2023-07-30T08:51:15.189Z,100146.09
2023-07-30T08:53:43.098Z,100151.94
2023-07-30T08:56:10.328Z,100150.69
2023-07-30T08:58:37.744Z,100143.44
2023-07-30T09:01:10.967Z,100155.50
2023-07-30T09:03:40.213Z,100156.09
2023-07-30T09:06:07.275Z,100161.97
2023-07-30T09:08:33.791Z,100157.06
2023-07-30T09:11:12.790Z,100167.03
2023-07-30T09:13:40.631Z,100175.47
2023-07-30T09:16:12.535Z,100199.88
2023-07-30T09:18:43.860Z,100219.34
2023-07-30T09:21:14.336Z,100218.63
2023-07-30T09:23:44.773Z,100216.94
2023-07-30T09:26:11.632Z,100223.25
2023-07-30T09:28:38.550Z,100229.09
2023-07-30T09:31:20.507Z,100236.44
2023-07-30T09:33:48.430Z,100254.44
2023-07-30T09:36:16.496Z,100247.09
2023-07-30T09:38:44.046Z,100248.13
2023-07-30T09:41:13.052Z,100249.63
2023-07-30T09:43:40.402Z,100251.28
2023-07-30T09:46:07.996Z,100255.88
2023-07-30T09:48:35.476Z,100255.88
2023-07-30T09:51:04.278Z,100275.59
2023-07-30T09:53:35.373Z,100274.59
2023-07-30T09:56:07.147Z,100289.66
2023-07-30T09:58:33.761Z,100293.38
2023-07-30T10:01:02.034Z,100293.19
2023-07-30T10:03:29.161Z,100302.63
2023-07-30T10:06:04.577Z,100316.25
2023-07-30T10:08:36.263Z,100311.63
2023-07-30T10:11:05.952Z,100319.38
2023-07-30T10:13:32.824Z,100321.09
2023-07-30T10:16:00.070Z,100325.09
2023-07-30T10:18:43.307Z,100329.53
2023-07-30T10:21:11.876Z,100330.63
2023-07-30T10:23:59.467Z,100323.09
2023-07-30T10:26:36.455Z,100332.38
2023-07-30T10:29:20.893Z,100331.94
2023-07-30T10:31:56.673Z,100339.50
2023-07-30T10:34:27.548Z,100330.22
2023-07-30T10:36:56.419Z,100341.75
2023-07-30T10:39:28.867Z,100340.63
2023-07-30T10:41:59.710Z,100335.50
2023-07-30T10:44:29.554Z,100352.00
2023-07-30T10:46:58.150Z,100347.25
2023-07-30T10:49:25.093Z,100344.88
2023-07-30T10:51:56.793Z,100338.81
2023-07-30T10:54:23.191Z,100352.44
2023-07-30T10:56:49.993Z,100343.19
2023-07-30T10:59:16.910Z,100344.28
2023-07-30T11:01:45.395Z,100342.59
2023-07-30T11:04:18.561Z,100344.28
2023-07-30T11:06:50.300Z,100354.84
2023-07-30T11:09:27.656Z,100356.28
2023-07-30T11:11:55.828Z,100359.84
2023-07-30T11:14:26.189Z,100368.94
2023-07-30T11:16:55.229Z,100367.84
2023-07-30T11:19:21.639Z,100366.81
2023-07-30T11:21:54.776Z,100369.97
2023-07-30T11:24:22.258Z,100378.63
2023-07-30T11:27:00.111Z,100377.25
2023-07-30T11:29:26.956Z,100381.72
2023-07-30T11:31:57.695Z,100389.38
2023-07-30T11:34:24.596Z,100401.00
2023-07-30T11:36:51.211Z,100395.53
2023-07-30T11:39:17.714Z,100402.69
2023-07-30T11:41:44.322Z,100402.06
2023-07-30T11:44:30.636Z,100423.47
2023-07-30T11:46:56.995Z,100407.72
2023-07-30T11:49:23.528Z,100414.47
2023-07-30T11:51:50.525Z,100423.28
2023-07-30T11:54:21.822Z,100416.78
2023-07-30T11:56:48.253Z,100413.81
2023-07-30T11:59:14.935Z,100420.34
2023-07-30T12:01:43.422Z,100420.94
2023-07-30T12:04:10.139Z,100416.91
2023-07-30T12:06:51.156Z,100413.28
2023-07-30T12:09:20.581Z,100413.69
2023-07-30T12:11:51.985Z,100420.84
2023-07-30T12:14:19.210Z,100421.22
2023-07-30T12:16:46.321Z,100427.56
2023-07-30T12:19:12.679Z,100432.41
2023-07-30T12:21:39.969Z,100427.72
2023-07-30T12:24:06.539Z,100441.66
2023-07-30T12:26:32.984Z,100435.13
2023-07-30T12:28:59.377Z,100439.75
2023-07-30T12:31:25.845Z,100446.16
2023-07-30T12:33:52.306Z,100438.16
2023-07-30T12:36:18.645Z,100435.75
2023-07-30T12:38:47.178Z,100433.88
2023-07-30T12:41:14.187Z,100437.16
2023-07-30T12:43:40.580Z,100434.63
2023-07-30T12:46:07.242Z,100427.63
2023-07-30T12:48:33.638Z,100441.19
2023-07-30T12:51:00.621Z,100437.28
2023-07-30T12:53:26.986Z,100440.31
2023-07-30T12:55:53.455Z,100437.69
2023-07-30T12:58:19.843Z,100442.66
2023-07-30T13:00:46.233Z,100435.94
2023-07-30T13:03:12.615Z,100442.28
2023-07-30T13:05:39.028Z,100439.88
2023-07-30T13:08:05.451Z,100433.03
2023-07-30T13:10:31.830Z,100438.03
2023-07-30T13:12:58.208Z,100429.06
2023-07-30T13:15:24.734Z,100430.13
2023-07-30T13:17:51.076Z,100447.59
2023-07-30T13:20:20.010Z,100433.72
2023-07-30T13:22:46.826Z,100431.91
2023-07-30T13:25:13.191Z,100433.97
2023-07-30T13:27:39.610Z,100422.78
2023-07-30T13:30:07.127Z,100430.84
2023-07-30T13:32:33.704Z,100444.00
2023-07-30T13:35:00.124Z,100447.22
2023-07-30T13:37:26.563Z,100455.06
2023-07-30T13:39:52.922Z,100456.88
2023-07-30T13:42:19.350Z,100452.63
2023-07-30T13:44:45.808Z,100444.09
2023-07-30T13:47:14.904Z,100446.63
2023-07-30T13:49:41.871Z,100449.25
2023-07-30T13:52:08.450Z,100441.38
2023-07-30T13:54:34.968Z,100443.50
2023-07-30T13:57:05.073Z,100446.00
2023-07-30T13:59:32.224Z,100450.84
2023-07-30T14:01:58.631Z,100437.22
2023-07-30T14:04:24.997Z,100438.97
2023-07-30T14:06:51.905Z,100447.22
2023-07-30T14:09:18.307Z,100443.56
2023-07-30T14:11:47.535Z,100440.59
2023-07-30T14:14:14.016Z,100439.69
2023-07-30T14:16:40.442Z,100437.41
2023-07-30T14:19:06.901Z,100449.13
2023-07-30T14:21:33.336Z,100433.59
2023-07-30T14:23:59.672Z,100431.59
2023-07-30T14:26:26.020Z,100428.91
2023-07-30T14:28:52.418Z,100431.03
2023-07-30T14:31:18.845Z,100443.50
2023-07-30T14:33:45.210Z,100435.34
2023-07-30T14:36:12.867Z,100437.09
2023-07-30T14:38:39.602Z,100442.03
2023-07-30T14:41:06.821Z,100437.25
2023-07-30T14:43:33.310Z,100430.38
2023-07-30T14:45:59.759Z,100442.28
2023-07-30T14:48:26.733Z,100431.91
2023-07-30T14:50:53.152Z,100432.28
2023-07-30T14:53:19.725Z,100440.50
2023-07-30T14:55:46.208Z,100439.53
2023-07-30T14:58:12.694Z,100441.31
2023-07-30T15:00:39.173Z,100425.50
2023-07-30T15:03:05.958Z,100444.69
2023-07-30T15:05:33.952Z,100430.13
2023-07-30T15:08:00.591Z,100442.66
2023-07-30T15:10:27.032Z,100432.28
2023-07-30T15:12:53.431Z,100442.34
2023-07-30T15:15:19.816Z,100437.09
2023-07-30T15:17:46.303Z,100438.00
2023-07-30T15:20:12.848Z,100430.13
2023-07-30T15:22:39.364Z,100435.78
2023-07-30T15:25:06.806Z,100428.03
2023-07-30T15:27:33.194Z,100425.44
2023-07-30T15:29:59.686Z,100430.53
2023-07-30T15:32:26.116Z,100435.69
2023-07-30T15:34:52.633Z,100429.28
2023-07-30T15:37:19.057Z,100435.75
2023-07-30T15:39:45.440Z,100419.63
2023-07-30T15:42:11.812Z,100430.59
2023-07-30T15:44:38.249Z,100435.03
2023-07-30T15:47:04.918Z,100435.69
2023-07-30T15:49:31.893Z,100426.56
2023-07-30T15:51:58.244Z,100417.81
2023-07-30T15:54:35.509Z,100416.34
2023-07-30T15:57:02.338Z,100414.63
2023-07-30T15:59:28.797Z,100409.75
2023-07-30T16:01:56.713Z,100408.16
2023-07-30T16:04:23.139Z,100418.16
2023-07-30T16:06:49.628Z,100403.50
2023-07-30T16:09:16.679Z,100413.94
2023-07-30T16:11:43.151Z,100411.72
2023-07-30T16:14:09.548Z,100424.53
2023-07-30T16:16:39.162Z,100415.38
2023-07-30T16:19:07.217Z,100426.78
2023-07-30T16:21:35.486Z,100428.22
2023-07-30T16:24:03.131Z,100421.88
2023-07-30T16:26:29.536Z,100425.22
2023-07-30T16:28:57.330Z,100424.84
2023-07-30T16:31:23.707Z,100427.25
2023-07-30T16:33:50.138Z,100437.69
2023-07-30T16:36:16.599Z,100430.22
2023-07-30T16:38:43.790Z,100424.16
2023-07-30T16:41:10.542Z,100428.47
2023-07-30T16:43:37.040Z,100431.03
2023-07-30T16:46:04.455Z,100427.78
2023-07-30T16:48:31.573Z,100420.06
2023-07-30T16:50:57.974Z,100425.53
2023-07-30T16:53:24.453Z,100423.41
2023-07-30T16:55:50.907Z,100423.81
2023-07-30T16:58:17.406Z,100412.47
2023-07-30T17:00:44.659Z,100424.03
2023-07-30T17:03:11.154Z,100427.69
2023-07-30T17:05:37.571Z,100414.47
2023-07-30T17:08:04.948Z,100433.22
2023-07-30T17:10:31.488Z,100421.66
2023-07-30T17:12:57.873Z,100426.94
2023-07-30T17:15:24.220Z,100425.47
2023-07-30T17:17:50.668Z,100428.47
2023-07-30T17:20:17.236Z,100439.63
2023-07-30T17:22:43.592Z,100438.75
2023-07-30T17:25:10.333Z,100444.66
2023-07-30T17:27:36.718Z,100439.41
2023-07-30T17:30:03.692Z,100435.88
2023-07-30T17:32:30.452Z,100434.63
2023-07-30T17:34:57.014Z,100439.03
2023-07-30T17:37:23.410Z,100446.81
2023-07-30T17:39:49.814Z,100438.63
2023-07-30T17:42:16.274Z,100448.09
2023-07-30T17:44:42.745Z,100449.13
2023-07-30T17:47:09.226Z,100444.31
2023-07-30T17:49:35.571Z,100444.31
2023-07-30T17:52:02.120Z,100443.91
2023-07-30T17:54:28.461Z,100447.72
2023-07-30T17:56:54.833Z,100450.25
2023-07-30T17:59:22.876Z,100451.06
2023-07-30T18:01:49.340Z,100445.22
2023-07-30T18:04:15.756Z,100443.16
2023-07-30T18:06:42.090Z,100452.19
2023-07-30T18:09:08.440Z,100451.75
2023-07-30T18:11:34.848Z,100453.88
2023-07-30T18:14:01.293Z,100457.88
2023-07-30T18:16:27.690Z,100457.25
2023-07-30T18:18:54.106Z,100449.94
2023-07-30T18:21:20.531Z,100453.09
2023-07-30T18:23:47.332Z,100459.38
2023-07-30T18:26:13.908Z,100459.19
2023-07-30T18:28:40.481Z,100469.66
2023-07-30T18:31:07.148Z,100457.28
2023-07-30T18:33:33.635Z,100462.75
2023-07-30T18:36:00.660Z,100452.03
2023-07-30T18:38:27.369Z,100449.72
2023-07-30T18:40:53.861Z,100463.38
2023-07-30T18:43:20.975Z,100456.88
2023-07-30T18:45:48.496Z,100458.72
2023-07-30T18:48:19.491Z,100450.75
2023-07-30T18:50:52.770Z,100457.66
2023-07-30T18:53:19.235Z,100459.31
2023-07-30T18:55:45.658Z,100454.91
2023-07-30T18:58:12.022Z,100464.56
2023-07-30T19:00:39.022Z,100465.38
2023-07-30T19:03:05.604Z,100471.91
2023-07-30T19:05:32.161Z,100475.88
2023-07-30T19:08:01.305Z,100474.22
2023-07-30T19:10:27.702Z,100475.47
2023-07-30T19:12:56.367Z,100472.25
2023-07-30T19:15:25.158Z,100487.19
2023-07-30T19:17:51.664Z,100490.09
2023-07-30T19:20:18.196Z,100486.09
2023-07-30T19:22:44.746Z,100495.13
2023-07-30T19:25:13.139Z,100491.13
2023-07-30T19:27:39.645Z,100495.09
2023-07-30T19:30:07.829Z,100493.97
2023-07-30T19:32:34.317Z,100493.22
2023-07-30T19:35:01.986Z,100501.31
2023-07-30T19:37:28.485Z,100502.97
2023-07-30T19:39:56.580Z,100492.66
2023-07-30T19:42:22.986Z,100501.25
2023-07-30T19:44:49.351Z,100498.72
2023-07-30T19:47:18.732Z,100502.47
2023-07-30T19:49:45.542Z,100499.50
2023-07-30T19:52:13.204Z,100506.38
2023-07-30T19:54:39.594Z,100503.41
2023-07-30T19:57:06.283Z,100500.41
2023-07-30T19:59:32.709Z,100492.91
2023-07-30T20:02:00.108Z,100495.97
2023-07-30T20:04:26.626Z,100494.94
2023-07-30T20:06:55.010Z,100498.25
2023-07-30T20:09:21.406Z,100493.81
2023-07-30T20:11:47.797Z,100494.22
2023-07-30T20:14:14.205Z,100489.47
2023-07-30T20:16:41.143Z,100495.09
2023-07-30T20:19:07.818Z,100492.72
2023-07-30T20:21:34.253Z,100489.94
2023-07-30T20:24:00.788Z,100485.69
2023-07-30T20:26:27.166Z,100488.59
2023-07-30T20:28:53.627Z,100484.84
2023-07-30T20:31:20.359Z,100476.16
2023-07-30T20:33:46.863Z,100485.38
2023-07-30T20:36:13.241Z,100486.59
2023-07-30T20:38:39.699Z,100482.59
2023-07-30T20:41:06.141Z,100484.41
2023-07-30T20:43:32.558Z,100490.88
2023-07-30T20:45:59.017Z,100487.50
2023-07-30T20:48:26.671Z,100485.84
2023-07-30T20:50:59.266Z,100491.06
2023-07-30T20:53:25.741Z,100489.59
2023-07-30T20:55:52.126Z,100479.72
2023-07-30T20:58:21.198Z,100484.72
2023-07-30T21:00:47.584Z,100482.44
2023-07-30T21:03:14.117Z,100476.00
2023-07-30T21:05:40.477Z,100474.28
2023-07-30T21:08:06.892Z,100476.00
2023-07-30T21:10:33.252Z,100465.41
2023-07-30T21:12:59.600Z,100475.91
2023-07-30T21:15:26.018Z,100465.41
2023-07-30T21:17:52.469Z,100471.03
2023-07-30T21:20:18.873Z,100471.03
2023-07-30T21:22:45.335Z,100469.56
2023-07-30T21:25:12.135Z,100475.56
2023-07-30T21:27:39.003Z,100473.03
2023-07-30T21:30:07.953Z,100477.66
2023-07-30T21:32:34.978Z,100469.88
2023-07-30T21:35:01.467Z,100468.19
2023-07-30T21:37:27.904Z,100471.28
2023-07-30T21:39:59.525Z,100467.72
2023-07-30T21:42:27.603Z,100467.72
2023-07-30T21:44:54.086Z,100451.34
2023-07-30T21:47:20.523Z,100459.78
2023-07-30T21:49:47.702Z,100463.97
2023-07-30T21:52:33.496Z,100461.72
2023-07-30T21:54:59.905Z,100462.56
2023-07-30T21:57:26.439Z,100460.25
2023-07-30T21:59:53.641Z,100460.03
2023-07-30T22:02:21.029Z,100466.13
2023-07-30T22:04:47.592Z,100453.38
2023-07-30T22:07:13.950Z,100453.16
2023-07-30T22:09:41.788Z,100448.56
2023-07-30T22:12:08.861Z,100455.88
2023-07-30T22:14:35.259Z,100458.72
2023-07-30T22:17:01.669Z,100462.97
2023-07-30T22:19:28.168Z,100458.72
2023-07-30T22:21:54.555Z,100451.59
2023-07-30T22:24:21.004Z,100453.19
2023-07-30T22:26:47.583Z,100444.84
2023-07-30T22:29:13.987Z,100445.53
2023-07-30T22:31:41.612Z,100445.91
2023-07-30T22:34:08.019Z,100438.75
2023-07-30T22:36:34.368Z,100438.09
2023-07-30T22:39:00.789Z,100443.84
2023-07-30T22:41:28.316Z,100434.53
2023-07-30T22:43:54.842Z,100439.06
2023-07-30T22:46:21.727Z,100431.94
2023-07-30T22:48:48.149Z,100434.88
2023-07-30T22:51:14.496Z,100432.78
2023-07-30T22:53:40.894Z,100431.75
2023-07-30T22:56:07.232Z,100433.19
2023-07-30T22:58:35.679Z,100435.63
2023-07-30T23:01:02.240Z,100436.47
2023-07-30T23:03:28.872Z,100428.31
2023-07-30T23:05:55.327Z,100439.38
2023-07-30T23:08:21.742Z,100436.00
2023-07-30T23:10:48.117Z,100438.44
2023-07-30T23:13:14.512Z,100434.56
2023-07-30T23:15:42.857Z,100445.41
2023-07-30T23:18:09.260Z,100438.88
2023-07-30T23:20:35.748Z,100432.34
2023-07-30T23:23:02.856Z,100428.94
2023-07-30T23:25:29.254Z,100418.84
2023-07-30T23:27:55.712Z,100416.69
2023-07-30T23:30:22.175Z,100419.78
2023-07-30T23:32:48.562Z,100412.50
2023-07-30T23:35:15.066Z,100428.78
2023-07-30T23:37:44.398Z,100424.94
2023-07-30T23:40:11.522Z,100421.97
2023-07-30T23:42:37.990Z,100411.56
2023-07-30T23:45:05.202Z,100406.88
2023-07-30T23:47:31.584Z,100410.72
2023-07-30T23:49:58.185Z,100409.88
2023-07-30T23:52:24.577Z,100409.88
2023-07-30T23:54:51.468Z,100410.91
2023-07-30T23:57:17.833Z,100410.72
2023-07-30T23:59:44.393Z,100418.47
